sensor_id;sensor_type;location;lat;lon;timestamp;temperature;humidity
61386;DHT22;47256;18.904;-99.054;2023-07-24T00:01:25;28.90;99.50
61386;DHT22;47256;18.904;-99.054;2023-07-24T00:03:53;28.90;99.80
61386;DHT22;47256;18.904;-99.054;2023-07-24T00:06:21;28.80;99.70
61386;DHT22;47256;18.904;-99.054;2023-07-24T00:08:48;28.90;99.50
61386;DHT22;47256;18.904;-99.054;2023-07-24T00:11:15;28.90;98.50
61386;DHT22;47256;18.904;-99.054;2023-07-24T00:13:44;28.80;99.80
61386;DHT22;47256;18.904;-99.054;2023-07-24T00:16:12;28.90;99.90
61386;DHT22;47256;18.904;-99.054;2023-07-24T00:18:39;28.80;99.90
61386;DHT22;47256;18.904;-99.054;2023-07-24T00:21:07;28.80;99.90
61386;DHT22;47256;18.904;-99.054;2023-07-24T00:23:35;28.80;99.90
61386;DHT22;47256;18.904;-99.054;2023-07-24T00:26:02;28.80;99.90
61386;DHT22;47256;18.904;-99.054;2023-07-24T00:28:29;28.70;99.90
61386;DHT22;47256;18.904;-99.054;2023-07-24T00:30:56;28.70;99.90
61386;DHT22;47256;18.904;-99.054;2023-07-24T00:33:23;28.60;99.90
61386;DHT22;47256;18.904;-99.054;2023-07-24T00:35:50;28.60;99.90
61386;DHT22;47256;18.904;-99.054;2023-07-24T00:38:21;28.50;99.90
61386;DHT22;47256;18.904;-99.054;2023-07-24T00:40:48;28.40;99.90
61386;DHT22;47256;18.904;-99.054;2023-07-24T00:43:17;28.40;99.90
61386;DHT22;47256;18.904;-99.054;2023-07-24T00:45:45;28.40;99.90
61386;DHT22;47256;18.904;-99.054;2023-07-24T00:48:15;28.40;99.90
61386;DHT22;47256;18.904;-99.054;2023-07-24T00:50:44;28.40;99.90
61386;DHT22;47256;18.904;-99.054;2023-07-24T00:53:12;28.40;99.90
61386;DHT22;47256;18.904;-99.054;2023-07-24T00:55:40;28.40;99.90
61386;DHT22;47256;18.904;-99.054;2023-07-24T00:58:11;28.40;99.90
61386;DHT22;47256;18.904;-99.054;2023-07-24T01:00:40;28.40;99.90
61386;DHT22;47256;18.904;-99.054;2023-07-24T01:03:08;28.40;99.90
61386;DHT22;47256;18.904;-99.054;2023-07-24T01:05:37;28.40;99.90
61386;DHT22;47256;18.904;-99.054;2023-07-24T01:08:04;28.40;99.90
61386;DHT22;47256;18.904;-99.054;2023-07-24T01:10:31;28.40;99.90
61386;DHT22;47256;18.904;-99.054;2023-07-24T01:15:36;28.30;99.90
61386;DHT22;47256;18.904;-99.054;2023-07-24T01:18:09;28.30;99.90
61386;DHT22;47256;18.904;-99.054;2023-07-24T01:20:42;28.30;99.90
61386;DHT22;47256;18.904;-99.054;2023-07-24T01:26:02;28.20;99.90
61386;DHT22;47256;18.904;-99.054;2023-07-24T01:28:29;28.20;99.90
61386;DHT22;47256;18.904;-99.054;2023-07-24T01:30:57;28.20;99.90
61386;DHT22;47256;18.904;-99.054;2023-07-24T01:33:25;28.10;99.90
61386;DHT22;47256;18.904;-99.054;2023-07-24T01:35:58;28.10;99.90
61386;DHT22;47256;18.904;-99.054;2023-07-24T01:38:26;28.10;99.90
61386;DHT22;47256;18.904;-99.054;2023-07-24T01:40:57;28.00;99.90
61386;DHT22;47256;18.904;-99.054;2023-07-24T01:43:25;28.00;99.90
61386;DHT22;47256;18.904;-99.054;2023-07-24T01:45:56;28.00;99.90
61386;DHT22;47256;18.904;-99.054;2023-07-24T01:48:23;27.80;99.90
61386;DHT22;47256;18.904;-99.054;2023-07-24T01:50:50;27.60;99.90
61386;DHT22;47256;18.904;-99.054;2023-07-24T01:53:17;27.40;99.70
61386;DHT22;47256;18.904;-99.054;2023-07-24T01:55:46;27.30;99.80
61386;DHT22;47256;18.904;-99.054;2023-07-24T01:58:13;27.20;99.50
61386;DHT22;47256;18.904;-99.054;2023-07-24T02:00:41;27.10;99.30
61386;DHT22;47256;18.904;-99.054;2023-07-24T02:03:08;27.00;99.80
61386;DHT22;47256;18.904;-99.054;2023-07-24T02:05:35;27.00;99.30
61386;DHT22;47256;18.904;-99.054;2023-07-24T02:08:02;26.90;99.10
61386;DHT22;47256;18.904;-99.054;2023-07-24T02:10:30;26.90;99.70
61386;DHT22;47256;18.904;-99.054;2023-07-24T02:12:57;26.90;99.60
61386;DHT22;47256;18.904;-99.054;2023-07-24T02:15:25;27.00;99.80
61386;DHT22;47256;18.904;-99.054;2023-07-24T02:17:52;26.90;99.90
61386;DHT22;47256;18.904;-99.054;2023-07-24T02:20:19;26.90;99.80
61386;DHT22;47256;18.904;-99.054;2023-07-24T02:22:46;26.90;99.90
61386;DHT22;47256;18.904;-99.054;2023-07-24T02:25:14;26.90;99.90
61386;DHT22;47256;18.904;-99.054;2023-07-24T02:27:41;26.90;99.90
61386;DHT22;47256;18.904;-99.054;2023-07-24T02:30:08;26.90;99.90
61386;DHT22;47256;18.904;-99.054;2023-07-24T02:32:36;26.80;99.90
61386;DHT22;47256;18.904;-99.054;2023-07-24T02:35:07;26.60;99.90
61386;DHT22;47256;18.904;-99.054;2023-07-24T02:37:34;26.40;99.90
61386;DHT22;47256;18.904;-99.054;2023-07-24T02:40:02;26.20;99.90
61386;DHT22;47256;18.904;-99.054;2023-07-24T02:42:29;26.10;99.90
61386;DHT22;47256;18.904;-99.054;2023-07-24T02:44:56;26.10;99.90
61386;DHT22;47256;18.904;-99.054;2023-07-24T02:47:24;26.10;99.90
61386;DHT22;47256;18.904;-99.054;2023-07-24T02:49:51;26.10;99.90
61386;DHT22;47256;18.904;-99.054;2023-07-24T02:52:18;25.90;99.90
61386;DHT22;47256;18.904;-99.054;2023-07-24T02:54:45;25.70;99.90
61386;DHT22;47256;18.904;-99.054;2023-07-24T02:57:12;25.80;99.90
61386;DHT22;47256;18.904;-99.054;2023-07-24T02:59:39;25.80;99.90
61386;DHT22;47256;18.904;-99.054;2023-07-24T03:02:06;25.70;99.90
61386;DHT22;47256;18.904;-99.054;2023-07-24T03:04:34;25.70;99.90
61386;DHT22;47256;18.904;-99.054;2023-07-24T03:07:01;25.70;99.90
61386;DHT22;47256;18.904;-99.054;2023-07-24T03:09:29;25.60;99.90
61386;DHT22;47256;18.904;-99.054;2023-07-24T03:11:56;25.60;99.90
61386;DHT22;47256;18.904;-99.054;2023-07-24T03:14:24;25.70;99.90
61386;DHT22;47256;18.904;-99.054;2023-07-24T03:16:52;25.60;99.90
61386;DHT22;47256;18.904;-99.054;2023-07-24T03:19:19;25.50;99.90
61386;DHT22;47256;18.904;-99.054;2023-07-24T03:21:46;25.40;99.90
61386;DHT22;47256;18.904;-99.054;2023-07-24T03:24:14;25.20;99.90
61386;DHT22;47256;18.904;-99.054;2023-07-24T03:26:41;25.00;99.90
61386;DHT22;47256;18.904;-99.054;2023-07-24T03:29:08;24.80;99.90
61386;DHT22;47256;18.904;-99.054;2023-07-24T03:31:35;24.80;99.90
61386;DHT22;47256;18.904;-99.054;2023-07-24T03:34:02;24.80;99.90
61386;DHT22;47256;18.904;-99.054;2023-07-24T03:36:30;24.70;99.90
61386;DHT22;47256;18.904;-99.054;2023-07-24T03:38:57;24.50;99.90
61386;DHT22;47256;18.904;-99.054;2023-07-24T03:41:25;24.40;99.90
61386;DHT22;47256;18.904;-99.054;2023-07-24T03:43:55;24.40;99.90
61386;DHT22;47256;18.904;-99.054;2023-07-24T03:46:22;24.50;99.90
61386;DHT22;47256;18.904;-99.054;2023-07-24T03:48:49;24.50;99.90
61386;DHT22;47256;18.904;-99.054;2023-07-24T03:51:17;24.60;99.90
61386;DHT22;47256;18.904;-99.054;2023-07-24T03:53:44;24.50;99.90
61386;DHT22;47256;18.904;-99.054;2023-07-24T03:56:11;24.40;99.90
61386;DHT22;47256;18.904;-99.054;2023-07-24T03:58:38;24.30;99.90
61386;DHT22;47256;18.904;-99.054;2023-07-24T04:01:06;24.30;99.90
61386;DHT22;47256;18.904;-99.054;2023-07-24T04:03:34;24.10;99.90
61386;DHT22;47256;18.904;-99.054;2023-07-24T04:06:02;24.00;99.90
61386;DHT22;47256;18.904;-99.054;2023-07-24T04:08:29;24.00;99.90
61386;DHT22;47256;18.904;-99.054;2023-07-24T04:10:56;24.10;99.90
61386;DHT22;47256;18.904;-99.054;2023-07-24T04:13:23;24.20;99.90
61386;DHT22;47256;18.904;-99.054;2023-07-24T04:15:50;24.30;99.90
61386;DHT22;47256;18.904;-99.054;2023-07-24T04:18:19;24.40;99.90
61386;DHT22;47256;18.904;-99.054;2023-07-24T04:20:46;24.30;99.90
61386;DHT22;47256;18.904;-99.054;2023-07-24T04:23:13;24.30;99.90
61386;DHT22;47256;18.904;-99.054;2023-07-24T04:25:40;24.40;99.90
61386;DHT22;47256;18.904;-99.054;2023-07-24T04:28:07;24.50;99.90
61386;DHT22;47256;18.904;-99.054;2023-07-24T04:30:34;24.60;99.90
61386;DHT22;47256;18.904;-99.054;2023-07-24T04:33:01;24.60;99.90
61386;DHT22;47256;18.904;-99.054;2023-07-24T04:35:29;24.60;99.90
61386;DHT22;47256;18.904;-99.054;2023-07-24T04:37:56;24.70;99.90
61386;DHT22;47256;18.904;-99.054;2023-07-24T04:40:24;24.70;99.90
61386;DHT22;47256;18.904;-99.054;2023-07-24T04:42:51;24.70;99.90
61386;DHT22;47256;18.904;-99.054;2023-07-24T04:45:18;24.70;99.90
61386;DHT22;47256;18.904;-99.054;2023-07-24T04:47:45;24.70;99.90
61386;DHT22;47256;18.904;-99.054;2023-07-24T04:50:13;24.70;99.90
61386;DHT22;47256;18.904;-99.054;2023-07-24T04:52:40;24.60;99.90
61386;DHT22;47256;18.904;-99.054;2023-07-24T04:55:07;24.60;99.90
61386;DHT22;47256;18.904;-99.054;2023-07-24T04:57:35;24.60;99.90
61386;DHT22;47256;18.904;-99.054;2023-07-24T05:00:03;24.60;99.90
61386;DHT22;47256;18.904;-99.054;2023-07-24T05:02:31;24.60;99.90
61386;DHT22;47256;18.904;-99.054;2023-07-24T05:04:58;24.60;99.90
61386;DHT22;47256;18.904;-99.054;2023-07-24T05:07:26;24.50;99.90
61386;DHT22;47256;18.904;-99.054;2023-07-24T05:09:53;24.50;99.90
61386;DHT22;47256;18.904;-99.054;2023-07-24T05:12:21;24.60;99.90
61386;DHT22;47256;18.904;-99.054;2023-07-24T05:14:48;24.50;99.90
61386;DHT22;47256;18.904;-99.054;2023-07-24T05:17:16;24.50;99.90
61386;DHT22;47256;18.904;-99.054;2023-07-24T05:19:43;24.30;99.90
61386;DHT22;47256;18.904;-99.054;2023-07-24T05:22:10;24.30;99.90
61386;DHT22;47256;18.904;-99.054;2023-07-24T05:24:37;24.30;99.90
61386;DHT22;47256;18.904;-99.054;2023-07-24T05:27:06;24.30;99.90
61386;DHT22;47256;18.904;-99.054;2023-07-24T05:29:33;24.30;99.90
61386;DHT22;47256;18.904;-99.054;2023-07-24T05:32:01;24.30;99.90
61386;DHT22;47256;18.904;-99.054;2023-07-24T05:34:28;24.30;99.90
61386;DHT22;47256;18.904;-99.054;2023-07-24T05:36:55;24.30;99.90
61386;DHT22;47256;18.904;-99.054;2023-07-24T05:39:22;24.30;99.90
61386;DHT22;47256;18.904;-99.054;2023-07-24T05:41:50;24.20;99.90
61386;DHT22;47256;18.904;-99.054;2023-07-24T05:44:17;24.20;99.90
61386;DHT22;47256;18.904;-99.054;2023-07-24T05:46:44;24.20;99.90
61386;DHT22;47256;18.904;-99.054;2023-07-24T05:49:11;24.20;99.90
61386;DHT22;47256;18.904;-99.054;2023-07-24T05:51:38;24.20;99.90
61386;DHT22;47256;18.904;-99.054;2023-07-24T05:54:05;24.20;99.90
61386;DHT22;47256;18.904;-99.054;2023-07-24T05:56:33;24.20;99.90
61386;DHT22;47256;18.904;-99.054;2023-07-24T05:59:00;24.20;99.90
61386;DHT22;47256;18.904;-99.054;2023-07-24T06:01:28;24.20;99.90
61386;DHT22;47256;18.904;-99.054;2023-07-24T06:03:55;24.20;99.90
61386;DHT22;47256;18.904;-99.054;2023-07-24T06:06:22;24.20;99.90
61386;DHT22;47256;18.904;-99.054;2023-07-24T06:08:49;24.30;99.90
61386;DHT22;47256;18.904;-99.054;2023-07-24T06:11:17;24.30;99.90
61386;DHT22;47256;18.904;-99.054;2023-07-24T06:13:44;24.20;99.90
61386;DHT22;47256;18.904;-99.054;2023-07-24T06:16:12;24.10;99.90
61386;DHT22;47256;18.904;-99.054;2023-07-24T06:18:40;24.00;99.90
61386;DHT22;47256;18.904;-99.054;2023-07-24T06:21:09;24.00;99.90
61386;DHT22;47256;18.904;-99.054;2023-07-24T06:23:36;24.10;99.90
61386;DHT22;47256;18.904;-99.054;2023-07-24T06:26:03;24.10;99.90
61386;DHT22;47256;18.904;-99.054;2023-07-24T06:28:30;24.10;99.90
61386;DHT22;47256;18.904;-99.054;2023-07-24T06:31:00;24.10;99.90
61386;DHT22;47256;18.904;-99.054;2023-07-24T06:33:27;24.10;99.90
61386;DHT22;47256;18.904;-99.054;2023-07-24T06:35:55;24.10;99.90
61386;DHT22;47256;18.904;-99.054;2023-07-24T06:38:23;24.10;99.90
61386;DHT22;47256;18.904;-99.054;2023-07-24T06:40:50;24.10;99.90
61386;DHT22;47256;18.904;-99.054;2023-07-24T06:43:17;24.10;99.90
61386;DHT22;47256;18.904;-99.054;2023-07-24T06:45:45;24.10;99.90
61386;DHT22;47256;18.904;-99.054;2023-07-24T06:48:12;24.10;99.90
61386;DHT22;47256;18.904;-99.054;2023-07-24T06:50:39;24.10;99.90
61386;DHT22;47256;18.904;-99.054;2023-07-24T06:53:06;24.10;99.90
61386;DHT22;47256;18.904;-99.054;2023-07-24T06:55:33;24.10;99.90
61386;DHT22;47256;18.904;-99.054;2023-07-24T06:58:00;24.10;99.90
61386;DHT22;47256;18.904;-99.054;2023-07-24T07:00:28;24.10;99.90
61386;DHT22;47256;18.904;-99.054;2023-07-24T07:02:55;24.10;99.90
61386;DHT22;47256;18.904;-99.054;2023-07-24T07:05:23;24.10;99.90
61386;DHT22;47256;18.904;-99.054;2023-07-24T07:07:50;24.10;99.90
61386;DHT22;47256;18.904;-99.054;2023-07-24T07:10:17;24.10;99.90
61386;DHT22;47256;18.904;-99.054;2023-07-24T07:12:44;24.10;99.90
61386;DHT22;47256;18.904;-99.054;2023-07-24T07:15:12;24.00;99.90
61386;DHT22;47256;18.904;-99.054;2023-07-24T07:17:39;24.00;99.90
61386;DHT22;47256;18.904;-99.054;2023-07-24T07:20:07;24.00;99.90
61386;DHT22;47256;18.904;-99.054;2023-07-24T07:22:34;24.00;99.90
61386;DHT22;47256;18.904;-99.054;2023-07-24T07:25:01;24.00;99.90
61386;DHT22;47256;18.904;-99.054;2023-07-24T07:27:28;23.90;99.90
61386;DHT22;47256;18.904;-99.054;2023-07-24T07:29:55;23.80;99.90
61386;DHT22;47256;18.904;-99.054;2023-07-24T07:32:22;23.80;99.90
61386;DHT22;47256;18.904;-99.054;2023-07-24T07:34:50;23.90;99.90
61386;DHT22;47256;18.904;-99.054;2023-07-24T07:37:17;23.90;99.90
61386;DHT22;47256;18.904;-99.054;2023-07-24T07:39:45;23.90;99.90
61386;DHT22;47256;18.904;-99.054;2023-07-24T07:42:12;23.90;99.90
61386;DHT22;47256;18.904;-99.054;2023-07-24T07:44:40;23.90;99.90
61386;DHT22;47256;18.904;-99.054;2023-07-24T07:47:07;24.00;99.90
61386;DHT22;47256;18.904;-99.054;2023-07-24T07:49:34;24.00;99.90
61386;DHT22;47256;18.904;-99.054;2023-07-24T07:52:01;23.90;99.90
61386;DHT22;47256;18.904;-99.054;2023-07-24T07:54:28;23.90;99.90
61386;DHT22;47256;18.904;-99.054;2023-07-24T07:56:55;23.90;99.90
61386;DHT22;47256;18.904;-99.054;2023-07-24T07:59:22;23.90;99.90
61386;DHT22;47256;18.904;-99.054;2023-07-24T08:01:49;23.90;99.90
61386;DHT22;47256;18.904;-99.054;2023-07-24T08:04:17;23.80;99.90
61386;DHT22;47256;18.904;-99.054;2023-07-24T08:06:45;23.80;99.90
61386;DHT22;47256;18.904;-99.054;2023-07-24T08:09:12;23.80;99.90
61386;DHT22;47256;18.904;-99.054;2023-07-24T08:11:39;23.80;99.90
61386;DHT22;47256;18.904;-99.054;2023-07-24T08:14:06;23.80;99.90
61386;DHT22;47256;18.904;-99.054;2023-07-24T08:16:33;23.80;99.90
61386;DHT22;47256;18.904;-99.054;2023-07-24T08:19:00;23.80;99.90
61386;DHT22;47256;18.904;-99.054;2023-07-24T08:21:27;23.80;99.90
61386;DHT22;47256;18.904;-99.054;2023-07-24T08:23:55;23.80;99.90
61386;DHT22;47256;18.904;-99.054;2023-07-24T08:26:23;23.80;99.90
61386;DHT22;47256;18.904;-99.054;2023-07-24T08:28:53;23.70;99.90
61386;DHT22;47256;18.904;-99.054;2023-07-24T08:31:20;23.70;99.90
61386;DHT22;47256;18.904;-99.054;2023-07-24T08:33:47;23.70;99.90
61386;DHT22;47256;18.904;-99.054;2023-07-24T08:36:15;23.70;99.90
61386;DHT22;47256;18.904;-99.054;2023-07-24T08:38:42;23.70;99.90
61386;DHT22;47256;18.904;-99.054;2023-07-24T08:41:13;23.70;99.90
61386;DHT22;47256;18.904;-99.054;2023-07-24T08:43:42;23.70;99.90
61386;DHT22;47256;18.904;-99.054;2023-07-24T08:46:10;23.70;99.90
61386;DHT22;47256;18.904;-99.054;2023-07-24T08:48:42;23.70;99.90
61386;DHT22;47256;18.904;-99.054;2023-07-24T08:51:14;23.70;99.90
61386;DHT22;47256;18.904;-99.054;2023-07-24T08:53:43;23.70;99.90
61386;DHT22;47256;18.904;-99.054;2023-07-24T08:56:12;23.70;99.90
61386;DHT22;47256;18.904;-99.054;2023-07-24T08:58:39;23.70;99.90
61386;DHT22;47256;18.904;-99.054;2023-07-24T09:01:07;23.70;99.90
61386;DHT22;47256;18.904;-99.054;2023-07-24T09:03:34;23.70;99.90
61386;DHT22;47256;18.904;-99.054;2023-07-24T09:06:02;23.70;99.90
61386;DHT22;47256;18.904;-99.054;2023-07-24T09:08:41;23.70;99.90
61386;DHT22;47256;18.904;-99.054;2023-07-24T09:11:10;23.60;99.90
61386;DHT22;47256;18.904;-99.054;2023-07-24T09:13:42;23.60;99.90
61386;DHT22;47256;18.904;-99.054;2023-07-24T09:16:20;23.60;99.90
61386;DHT22;47256;18.904;-99.054;2023-07-24T09:18:48;23.60;99.90
61386;DHT22;47256;18.904;-99.054;2023-07-24T09:21:15;23.60;99.90
61386;DHT22;47256;18.904;-99.054;2023-07-24T09:23:43;23.60;99.90
61386;DHT22;47256;18.904;-99.054;2023-07-24T09:26:10;23.60;99.90
61386;DHT22;47256;18.904;-99.054;2023-07-24T09:28:37;23.60;99.90
61386;DHT22;47256;18.904;-99.054;2023-07-24T09:31:04;23.60;99.90
61386;DHT22;47256;18.904;-99.054;2023-07-24T09:33:39;23.50;99.90
61386;DHT22;47256;18.904;-99.054;2023-07-24T09:36:08;23.50;99.90
61386;DHT22;47256;18.904;-99.054;2023-07-24T09:38:37;23.50;99.90
61386;DHT22;47256;18.904;-99.054;2023-07-24T09:41:06;23.60;99.90
61386;DHT22;47256;18.904;-99.054;2023-07-24T09:43:33;23.50;99.90
61386;DHT22;47256;18.904;-99.054;2023-07-24T09:46:05;23.50;99.90
61386;DHT22;47256;18.904;-99.054;2023-07-24T09:48:36;23.40;99.90
61386;DHT22;47256;18.904;-99.054;2023-07-24T09:51:03;23.40;99.90
61386;DHT22;47256;18.904;-99.054;2023-07-24T09:56:06;23.40;99.90
61386;DHT22;47256;18.904;-99.054;2023-07-24T09:58:35;23.40;99.90
61386;DHT22;47256;18.904;-99.054;2023-07-24T10:01:03;23.40;99.90
61386;DHT22;47256;18.904;-99.054;2023-07-24T10:03:40;23.40;99.90
61386;DHT22;47256;18.904;-99.054;2023-07-24T10:06:09;23.30;99.90
61386;DHT22;47256;18.904;-99.054;2023-07-24T10:08:42;23.30;99.90
61386;DHT22;47256;18.904;-99.054;2023-07-24T10:11:12;23.30;99.90
61386;DHT22;47256;18.904;-99.054;2023-07-24T10:13:40;23.30;99.90
61386;DHT22;47256;18.904;-99.054;2023-07-24T10:16:08;23.30;99.90
61386;DHT22;47256;18.904;-99.054;2023-07-24T10:18:43;23.40;99.90
61386;DHT22;47256;18.904;-99.054;2023-07-24T10:21:11;23.40;99.90
61386;DHT22;47256;18.904;-99.054;2023-07-24T10:23:43;23.40;99.90
61386;DHT22;47256;18.904;-99.054;2023-07-24T10:26:10;23.40;99.90
61386;DHT22;47256;18.904;-99.054;2023-07-24T10:28:40;23.40;99.90
61386;DHT22;47256;18.904;-99.054;2023-07-24T10:31:25;23.40;99.90
61386;DHT22;47256;18.904;-99.054;2023-07-24T10:33:59;23.40;99.90
61386;DHT22;47256;18.904;-99.054;2023-07-24T10:36:34;23.40;99.90
61386;DHT22;47256;18.904;-99.054;2023-07-24T10:39:02;23.40;99.90
61386;DHT22;47256;18.904;-99.054;2023-07-24T10:41:37;23.40;99.90
61386;DHT22;47256;18.904;-99.054;2023-07-24T10:44:05;23.40;99.90
61386;DHT22;47256;18.904;-99.054;2023-07-24T10:46:37;23.40;99.90
61386;DHT22;47256;18.904;-99.054;2023-07-24T10:49:05;23.40;99.90
61386;DHT22;47256;18.904;-99.054;2023-07-24T10:51:33;23.40;99.90
61386;DHT22;47256;18.904;-99.054;2023-07-24T10:54:02;23.40;99.90
61386;DHT22;47256;18.904;-99.054;2023-07-24T10:56:30;23.40;99.90
61386;DHT22;47256;18.904;-99.054;2023-07-24T10:59:02;23.40;99.90
61386;DHT22;47256;18.904;-99.054;2023-07-24T11:01:30;23.30;99.90
61386;DHT22;47256;18.904;-99.054;2023-07-24T11:03:58;23.20;99.90
61386;DHT22;47256;18.904;-99.054;2023-07-24T11:06:26;23.20;99.90
61386;DHT22;47256;18.904;-99.054;2023-07-24T11:08:58;23.20;99.90
61386;DHT22;47256;18.904;-99.054;2023-07-24T11:11:34;23.30;99.90
61386;DHT22;47256;18.904;-99.054;2023-07-24T11:14:02;23.20;99.90
61386;DHT22;47256;18.904;-99.054;2023-07-24T11:16:30;23.10;99.90
61386;DHT22;47256;18.904;-99.054;2023-07-24T11:19:00;23.10;99.90
61386;DHT22;47256;18.904;-99.054;2023-07-24T11:21:27;23.10;99.90
61386;DHT22;47256;18.904;-99.054;2023-07-24T11:23:56;23.00;99.90
61386;DHT22;47256;18.904;-99.054;2023-07-24T11:26:24;23.00;99.90
61386;DHT22;47256;18.904;-99.054;2023-07-24T11:28:53;23.00;99.90
61386;DHT22;47256;18.904;-99.054;2023-07-24T11:31:20;22.90;99.90
61386;DHT22;47256;18.904;-99.054;2023-07-24T11:33:49;22.90;99.90
61386;DHT22;47256;18.904;-99.054;2023-07-24T11:36:16;22.90;99.90
61386;DHT22;47256;18.904;-99.054;2023-07-24T11:38:47;22.90;99.90
61386;DHT22;47256;18.904;-99.054;2023-07-24T11:41:19;22.80;99.90
61386;DHT22;47256;18.904;-99.054;2023-07-24T11:43:48;22.70;99.90
61386;DHT22;47256;18.904;-99.054;2023-07-24T11:46:26;22.50;99.90
61386;DHT22;47256;18.904;-99.054;2023-07-24T11:48:54;22.30;99.90
61386;DHT22;47256;18.904;-99.054;2023-07-24T11:51:27;22.20;99.90
61386;DHT22;47256;18.904;-99.054;2023-07-24T11:54:07;22.00;99.90
61386;DHT22;47256;18.904;-99.054;2023-07-24T11:56:35;22.00;99.90
61386;DHT22;47256;18.904;-99.054;2023-07-24T11:59:13;21.90;99.90
61386;DHT22;47256;18.904;-99.054;2023-07-24T12:01:48;21.90;99.90
61386;DHT22;47256;18.904;-99.054;2023-07-24T12:04:16;22.00;99.90
61386;DHT22;47256;18.904;-99.054;2023-07-24T12:06:43;22.00;99.90
61386;DHT22;47256;18.904;-99.054;2023-07-24T12:09:11;21.90;99.90
61386;DHT22;47256;18.904;-99.054;2023-07-24T12:11:44;21.90;99.90
61386;DHT22;47256;18.904;-99.054;2023-07-24T12:14:13;21.80;99.90
61386;DHT22;47256;18.904;-99.054;2023-07-24T12:16:41;21.80;99.90
61386;DHT22;47256;18.904;-99.054;2023-07-24T12:19:08;21.80;99.90
61386;DHT22;47256;18.904;-99.054;2023-07-24T12:21:35;21.80;99.90
61386;DHT22;47256;18.904;-99.054;2023-07-24T12:24:02;21.80;99.90
61386;DHT22;47256;18.904;-99.054;2023-07-24T12:26:30;21.80;99.90
61386;DHT22;47256;18.904;-99.054;2023-07-24T12:28:57;21.70;99.90
61386;DHT22;47256;18.904;-99.054;2023-07-24T12:31:26;21.80;99.90
61386;DHT22;47256;18.904;-99.054;2023-07-24T12:33:54;21.80;99.90
61386;DHT22;47256;18.904;-99.054;2023-07-24T12:36:21;21.80;99.90
61386;DHT22;47256;18.904;-99.054;2023-07-24T12:38:48;21.90;99.90
61386;DHT22;47256;18.904;-99.054;2023-07-24T12:41:16;22.00;99.90
61386;DHT22;47256;18.904;-99.054;2023-07-24T12:43:44;22.20;99.90
61386;DHT22;47256;18.904;-99.054;2023-07-24T12:46:11;22.30;99.90
61386;DHT22;47256;18.904;-99.054;2023-07-24T12:48:38;22.30;99.90
61386;DHT22;47256;18.904;-99.054;2023-07-24T12:51:05;22.30;99.90
61386;DHT22;47256;18.904;-99.054;2023-07-24T12:53:32;22.30;99.90
61386;DHT22;47256;18.904;-99.054;2023-07-24T12:55:59;22.40;99.90
61386;DHT22;47256;18.904;-99.054;2023-07-24T12:58:28;22.50;99.90
61386;DHT22;47256;18.904;-99.054;2023-07-24T13:00:56;22.50;99.90
61386;DHT22;47256;18.904;-99.054;2023-07-24T13:03:23;22.50;99.90
61386;DHT22;47256;18.904;-99.054;2023-07-24T13:05:50;22.50;99.90
61386;DHT22;47256;18.904;-99.054;2023-07-24T13:08:18;22.60;99.90
61386;DHT22;47256;18.904;-99.054;2023-07-24T13:10:48;22.60;99.90
61386;DHT22;47256;18.904;-99.054;2023-07-24T13:13:15;22.70;99.90
61386;DHT22;47256;18.904;-99.054;2023-07-24T13:15:42;22.70;99.90
61386;DHT22;47256;18.904;-99.054;2023-07-24T13:18:10;22.70;99.90
61386;DHT22;47256;18.904;-99.054;2023-07-24T13:20:40;22.60;99.90
61386;DHT22;47256;18.904;-99.054;2023-07-24T13:23:07;22.50;99.90
61386;DHT22;47256;18.904;-99.054;2023-07-24T13:25:35;22.50;99.90
61386;DHT22;47256;18.904;-99.054;2023-07-24T13:28:02;22.50;99.90
61386;DHT22;47256;18.904;-99.054;2023-07-24T13:30:30;22.50;99.90
61386;DHT22;47256;18.904;-99.054;2023-07-24T13:32:57;22.50;99.90
61386;DHT22;47256;18.904;-99.054;2023-07-24T13:35:24;22.50;99.90
61386;DHT22;47256;18.904;-99.054;2023-07-24T13:37:51;22.50;99.90
61386;DHT22;47256;18.904;-99.054;2023-07-24T13:40:18;22.50;99.90
61386;DHT22;47256;18.904;-99.054;2023-07-24T13:42:45;22.50;99.90
61386;DHT22;47256;18.904;-99.054;2023-07-24T13:45:12;22.50;99.90
61386;DHT22;47256;18.904;-99.054;2023-07-24T13:47:39;22.40;99.90
61386;DHT22;47256;18.904;-99.054;2023-07-24T13:50:06;22.50;99.90
61386;DHT22;47256;18.904;-99.054;2023-07-24T13:52:34;22.60;99.90
61386;DHT22;47256;18.904;-99.054;2023-07-24T13:55:01;22.70;99.90
61386;DHT22;47256;18.904;-99.054;2023-07-24T13:57:28;22.70;99.90
61386;DHT22;47256;18.904;-99.054;2023-07-24T13:59:55;22.80;99.90
61386;DHT22;47256;18.904;-99.054;2023-07-24T14:02:22;22.80;99.90
61386;DHT22;47256;18.904;-99.054;2023-07-24T14:04:49;22.80;99.90
61386;DHT22;47256;18.904;-99.054;2023-07-24T14:07:16;22.70;99.90
61386;DHT22;47256;18.904;-99.054;2023-07-24T14:09:43;22.70;99.90
61386;DHT22;47256;18.904;-99.054;2023-07-24T14:12:11;22.70;99.90
61386;DHT22;47256;18.904;-99.054;2023-07-24T14:14:38;22.80;99.90
61386;DHT22;47256;18.904;-99.054;2023-07-24T14:17:05;22.80;99.90
61386;DHT22;47256;18.904;-99.054;2023-07-24T14:19:32;22.90;99.90
61386;DHT22;47256;18.904;-99.054;2023-07-24T14:21:59;22.90;99.90
61386;DHT22;47256;18.904;-99.054;2023-07-24T14:24:28;22.90;99.90
61386;DHT22;47256;18.904;-99.054;2023-07-24T14:26:55;22.90;99.90
61386;DHT22;47256;18.904;-99.054;2023-07-24T14:29:22;23.00;99.90
61386;DHT22;47256;18.904;-99.054;2023-07-24T14:31:49;23.00;99.90
61386;DHT22;47256;18.904;-99.054;2023-07-24T14:34:16;23.00;99.90
61386;DHT22;47256;18.904;-99.054;2023-07-24T14:36:43;23.10;99.90
61386;DHT22;47256;18.904;-99.054;2023-07-24T14:39:10;23.10;99.90
61386;DHT22;47256;18.904;-99.054;2023-07-24T14:41:37;23.10;99.90
61386;DHT22;47256;18.904;-99.054;2023-07-24T14:44:04;23.10;99.90
61386;DHT22;47256;18.904;-99.054;2023-07-24T14:46:32;23.20;99.90
61386;DHT22;47256;18.904;-99.054;2023-07-24T14:48:59;23.20;99.90
61386;DHT22;47256;18.904;-99.054;2023-07-24T14:51:26;23.30;99.90
61386;DHT22;47256;18.904;-99.054;2023-07-24T14:53:53;23.30;99.90
61386;DHT22;47256;18.904;-99.054;2023-07-24T14:56:20;23.40;99.90
61386;DHT22;47256;18.904;-99.054;2023-07-24T14:58:47;23.40;99.90
61386;DHT22;47256;18.904;-99.054;2023-07-24T15:01:15;23.50;99.90
61386;DHT22;47256;18.904;-99.054;2023-07-24T15:03:43;23.60;99.90
61386;DHT22;47256;18.904;-99.054;2023-07-24T15:06:10;23.60;99.90
61386;DHT22;47256;18.904;-99.054;2023-07-24T15:08:37;23.80;99.90
61386;DHT22;47256;18.904;-99.054;2023-07-24T15:11:04;23.80;99.90
61386;DHT22;47256;18.904;-99.054;2023-07-24T15:13:32;23.90;99.90
61386;DHT22;47256;18.904;-99.054;2023-07-24T15:15:59;24.00;99.90